sensor_id;sensor_type;location;lat;lon;timestamp;temperature;humidity
32147;DHT22;32190;49.112;8.598;2022-09-12T00:03:09;20.90;55.60
32147;DHT22;32190;49.112;8.598;2022-09-12T00:09:02;20.90;55.60
32147;DHT22;32190;49.112;8.598;2022-09-12T00:14:53;20.80;55.60
32147;DHT22;32190;49.112;8.598;2022-09-12T00:20:45;20.70;55.60
32147;DHT22;32190;49.112;8.598;2022-09-12T00:26:36;20.70;55.60
32147;DHT22;32190;49.112;8.598;2022-09-12T00:32:26;20.50;55.70
32147;DHT22;32190;49.112;8.598;2022-09-12T00:38:18;20.50;55.80
32147;DHT22;32190;49.112;8.598;2022-09-12T00:50:11;20.40;56.10
32147;DHT22;32190;49.112;8.598;2022-09-12T00:56:02;20.30;56.10
32147;DHT22;32190;49.112;8.598;2022-09-12T01:01:53;20.30;56.10
32147;DHT22;32190;49.112;8.598;2022-09-12T01:07:45;20.30;56.20
32147;DHT22;32190;49.112;8.598;2022-09-12T01:13:38;20.30;56.20
32147;DHT22;32190;49.112;8.598;2022-09-12T01:32:07;20.30;56.20
32147;DHT22;32190;49.112;8.598;2022-09-12T01:50:27;20.00;56.30
32147;DHT22;32190;49.112;8.598;2022-09-12T01:56:26;20.00;56.30
32147;DHT22;32190;49.112;8.598;2022-09-12T02:02:21;20.00;56.30
32147;DHT22;32190;49.112;8.598;2022-09-12T02:08:26;20.00;56.10
32147;DHT22;32190;49.112;8.598;2022-09-12T02:14:22;20.00;56.20
32147;DHT22;32190;49.112;8.598;2022-09-12T02:20:18;19.90;56.30
32147;DHT22;32190;49.112;8.598;2022-09-12T02:26:16;19.80;56.30
32147;DHT22;32190;49.112;8.598;2022-09-12T02:32:23;19.80;56.40
32147;DHT22;32190;49.112;8.598;2022-09-12T02:38:36;19.70;56.40
32147;DHT22;32190;49.112;8.598;2022-09-12T02:44:31;19.70;56.40
32147;DHT22;32190;49.112;8.598;2022-09-12T02:50:23;19.70;56.40
32147;DHT22;32190;49.112;8.598;2022-09-12T02:56:18;19.60;56.50
32147;DHT22;32190;49.112;8.598;2022-09-12T03:14:18;19.60;56.40
32147;DHT22;32190;49.112;8.598;2022-09-12T03:20:36;19.50;56.30
32147;DHT22;32190;49.112;8.598;2022-09-12T03:33:03;19.40;56.50
32147;DHT22;32190;49.112;8.598;2022-09-12T03:38:53;19.30;56.50
32147;DHT22;32190;49.112;8.598;2022-09-12T03:44:44;19.30;56.60
32147;DHT22;32190;49.112;8.598;2022-09-12T03:50:35;19.30;56.60
32147;DHT22;32190;49.112;8.598;2022-09-12T03:56:25;19.20;56.60
32147;DHT22;32190;49.112;8.598;2022-09-12T04:02:16;19.20;56.70
32147;DHT22;32190;49.112;8.598;2022-09-12T04:08:07;19.10;56.60
32147;DHT22;32190;49.112;8.598;2022-09-12T04:13:57;19.10;56.70
32147;DHT22;32190;49.112;8.598;2022-09-12T04:19:48;19.10;56.80
32147;DHT22;32190;49.112;8.598;2022-09-12T04:25:38;19.10;56.80
32147;DHT22;32190;49.112;8.598;2022-09-12T04:31:29;19.00;56.70
32147;DHT22;32190;49.112;8.598;2022-09-12T04:37:19;19.00;56.70
32147;DHT22;32190;49.112;8.598;2022-09-12T04:43:11;19.00;56.80
32147;DHT22;32190;49.112;8.598;2022-09-12T04:49:02;18.90;56.70
32147;DHT22;32190;49.112;8.598;2022-09-12T04:54:52;18.90;56.80
32147;DHT22;32190;49.112;8.598;2022-09-12T05:00:43;18.90;56.80
32147;DHT22;32190;49.112;8.598;2022-09-12T05:06:35;18.90;56.70
32147;DHT22;32190;49.112;8.598;2022-09-12T05:12:26;18.80;56.70
32147;DHT22;32190;49.112;8.598;2022-09-12T05:18:17;18.70;56.80
32147;DHT22;32190;49.112;8.598;2022-09-12T05:24:09;18.70;56.90
32147;DHT22;32190;49.112;8.598;2022-09-12T05:30:00;18.70;56.90
32147;DHT22;32190;49.112;8.598;2022-09-12T05:35:51;18.70;57.00
32147;DHT22;32190;49.112;8.598;2022-09-12T05:41:42;18.70;57.00
32147;DHT22;32190;49.112;8.598;2022-09-12T05:47:32;18.60;57.00
32147;DHT22;32190;49.112;8.598;2022-09-12T05:53:23;18.60;57.00
32147;DHT22;32190;49.112;8.598;2022-09-12T05:59:20;18.60;57.10
32147;DHT22;32190;49.112;8.598;2022-09-12T06:05:10;18.60;57.20
32147;DHT22;32190;49.112;8.598;2022-09-12T06:11:03;18.50;57.20
32147;DHT22;32190;49.112;8.598;2022-09-12T06:16:54;18.50;57.50
32147;DHT22;32190;49.112;8.598;2022-09-12T06:22:45;18.40;57.70
32147;DHT22;32190;49.112;8.598;2022-09-12T06:28:41;18.40;57.90
32147;DHT22;32190;49.112;8.598;2022-09-12T06:34:31;18.40;58.20
32147;DHT22;32190;49.112;8.598;2022-09-12T06:40:23;18.40;58.40
32147;DHT22;32190;49.112;8.598;2022-09-12T06:46:13;18.30;58.50
32147;DHT22;32190;49.112;8.598;2022-09-12T06:52:04;18.30;58.60
32147;DHT22;32190;49.112;8.598;2022-09-12T06:57:56;18.30;58.90
32147;DHT22;32190;49.112;8.598;2022-09-12T07:03:58;18.30;59.30
32147;DHT22;32190;49.112;8.598;2022-09-12T07:09:49;18.30;59.80
32147;DHT22;32190;49.112;8.598;2022-09-12T07:15:39;18.40;59.70
32147;DHT22;32190;49.112;8.598;2022-09-12T07:21:30;18.40;59.80
32147;DHT22;32190;49.112;8.598;2022-09-12T07:27:21;18.50;60.20
32147;DHT22;32190;49.112;8.598;2022-09-12T07:33:11;18.60;60.70
32147;DHT22;32190;49.112;8.598;2022-09-12T07:39:02;18.60;60.80
32147;DHT22;32190;49.112;8.598;2022-09-12T07:44:53;18.70;61.00
32147;DHT22;32190;49.112;8.598;2022-09-12T07:50:43;18.90;61.60
32147;DHT22;32190;49.112;8.598;2022-09-12T07:56:34;18.90;61.50
32147;DHT22;32190;49.112;8.598;2022-09-12T08:02:25;19.10;62.00
32147;DHT22;32190;49.112;8.598;2022-09-12T08:08:15;19.20;62.20
32147;DHT22;32190;49.112;8.598;2022-09-12T08:14:06;19.40;62.30
32147;DHT22;32190;49.112;8.598;2022-09-12T08:19:56;19.50;61.90
32147;DHT22;32190;49.112;8.598;2022-09-12T08:25:47;19.70;61.60
32147;DHT22;32190;49.112;8.598;2022-09-12T08:31:37;19.80;61.50
32147;DHT22;32190;49.112;8.598;2022-09-12T08:37:31;20.00;61.30
32147;DHT22;32190;49.112;8.598;2022-09-12T09:01:29;20.60;60.80
32147;DHT22;32190;49.112;8.598;2022-09-12T09:07:32;20.70;59.80
32147;DHT22;32190;49.112;8.598;2022-09-12T09:20:16;20.90;59.50
32147;DHT22;32190;49.112;8.598;2022-09-12T09:32:37;21.30;59.10
32147;DHT22;32190;49.112;8.598;2022-09-12T09:39:04;21.50;59.00
32147;DHT22;32190;49.112;8.598;2022-09-12T09:44:58;21.60;59.10
32147;DHT22;32190;49.112;8.598;2022-09-12T09:50:49;21.80;58.30
32147;DHT22;32190;49.112;8.598;2022-09-12T09:56:41;22.00;58.20
32147;DHT22;32190;49.112;8.598;2022-09-12T10:02:31;22.20;57.80
32147;DHT22;32190;49.112;8.598;2022-09-12T10:14:41;22.50;56.80
32147;DHT22;32190;49.112;8.598;2022-09-12T10:20:43;22.70;56.40
32147;DHT22;32190;49.112;8.598;2022-09-12T10:26:37;22.80;56.60
32147;DHT22;32190;49.112;8.598;2022-09-12T10:32:41;23.00;55.70
32147;DHT22;32190;49.112;8.598;2022-09-12T10:38:32;23.20;55.10
32147;DHT22;32190;49.112;8.598;2022-09-12T10:44:27;23.50;55.60
32147;DHT22;32190;49.112;8.598;2022-09-12T10:56:17;23.70;53.60
32147;DHT22;32190;49.112;8.598;2022-09-12T11:02:26;23.80;52.60
32147;DHT22;32190;49.112;8.598;2022-09-12T11:08:38;23.90;52.00
32147;DHT22;32190;49.112;8.598;2022-09-12T11:27:27;24.30;51.20
32147;DHT22;32190;49.112;8.598;2022-09-12T11:33:46;24.40;51.20
32147;DHT22;32190;49.112;8.598;2022-09-12T11:39:39;24.60;50.70
32147;DHT22;32190;49.112;8.598;2022-09-12T11:45:41;24.80;51.60
32147;DHT22;32190;49.112;8.598;2022-09-12T11:51:36;24.90;50.30
32147;DHT22;32190;49.112;8.598;2022-09-12T11:57:30;25.00;50.00
32147;DHT22;32190;49.112;8.598;2022-09-12T12:03:24;25.10;50.40
32147;DHT22;32190;49.112;8.598;2022-09-12T12:09:17;25.20;49.90
32147;DHT22;32190;49.112;8.598;2022-09-12T12:15:13;25.30;49.90
32147;DHT22;32190;49.112;8.598;2022-09-12T12:39:57;25.50;49.10
32147;DHT22;32190;49.112;8.598;2022-09-12T12:46:00;25.60;48.10
32147;DHT22;32190;49.112;8.598;2022-09-12T12:51:56;25.70;47.10
32147;DHT22;32190;49.112;8.598;2022-09-12T12:57:49;25.80;47.20
32147;DHT22;32190;49.112;8.598;2022-09-12T13:03:43;25.90;47.60
32147;DHT22;32190;49.112;8.598;2022-09-12T13:09:45;26.00;46.60
32147;DHT22;32190;49.112;8.598;2022-09-12T13:21:27;26.20;46.50
32147;DHT22;32190;49.112;8.598;2022-09-12T13:27:20;26.40;46.40
32147;DHT22;32190;49.112;8.598;2022-09-12T13:33:44;26.50;46.00
32147;DHT22;32190;49.112;8.598;2022-09-12T13:45:48;26.80;46.00
32147;DHT22;32190;49.112;8.598;2022-09-12T13:51:39;26.90;46.80
32147;DHT22;32190;49.112;8.598;2022-09-12T13:57:34;27.00;45.80
32147;DHT22;32190;49.112;8.598;2022-09-12T14:03:32;27.00;45.70
32147;DHT22;32190;49.112;8.598;2022-09-12T14:09:44;27.10;45.00
32147;DHT22;32190;49.112;8.598;2022-09-12T14:15:37;27.30;45.00
32147;DHT22;32190;49.112;8.598;2022-09-12T14:27:27;27.50;44.20
32147;DHT22;32190;49.112;8.598;2022-09-12T14:33:19;27.60;42.90
32147;DHT22;32190;49.112;8.598;2022-09-12T14:45:29;27.80;41.00
32147;DHT22;32190;49.112;8.598;2022-09-12T14:51:27;27.90;43.20
32147;DHT22;32190;49.112;8.598;2022-09-12T14:57:40;28.10;42.30
32147;DHT22;32190;49.112;8.598;2022-09-12T15:03:48;28.30;40.00
32147;DHT22;32190;49.112;8.598;2022-09-12T16:36:14;29.40;41.40
32147;DHT22;32190;49.112;8.598;2022-09-12T16:42:08;29.30;42.50
32147;DHT22;32190;49.112;8.598;2022-09-12T16:48:09;29.30;43.10
32147;DHT22;32190;49.112;8.598;2022-09-12T16:54:00;29.20;43.20
32147;DHT22;32190;49.112;8.598;2022-09-12T17:07:21;29.10;43.30
32147;DHT22;32190;49.112;8.598;2022-09-12T17:34:48;28.70;44.00
32147;DHT22;32190;49.112;8.598;2022-09-12T17:41:19;28.60;44.40
32147;DHT22;32190;49.112;8.598;2022-09-12T17:47:26;28.50;44.40
32147;DHT22;32190;49.112;8.598;2022-09-12T18:00:09;28.20;44.70
32147;DHT22;32190;49.112;8.598;2022-09-12T18:06:09;28.10;44.80
32147;DHT22;32190;49.112;8.598;2022-09-12T18:12:04;27.90;44.10
32147;DHT22;32190;49.112;8.598;2022-09-12T18:18:01;27.80;44.40
32147;DHT22;32190;49.112;8.598;2022-09-12T18:23:58;27.60;44.40
32147;DHT22;32190;49.112;8.598;2022-09-12T18:29:52;27.30;43.70
32147;DHT22;32190;49.112;8.598;2022-09-12T18:35:43;27.10;44.80
32147;DHT22;32190;49.112;8.598;2022-09-12T18:41:53;27.00;45.00
32147;DHT22;32190;49.112;8.598;2022-09-12T18:47:43;26.90;45.10
32147;DHT22;32190;49.112;8.598;2022-09-12T18:53:38;26.70;45.30
32147;DHT22;32190;49.112;8.598;2022-09-12T18:59:39;26.60;45.20
32147;DHT22;32190;49.112;8.598;2022-09-12T19:56:05;25.20;45.80
32147;DHT22;32190;49.112;8.598;2022-09-12T20:01:57;25.00;46.50
32147;DHT22;32190;49.112;8.598;2022-09-12T20:08:17;24.90;47.00
32147;DHT22;32190;49.112;8.598;2022-09-12T20:14:16;24.90;47.30
32147;DHT22;32190;49.112;8.598;2022-09-12T20:32:13;25.00;47.10
32147;DHT22;32190;49.112;8.598;2022-09-12T20:44:40;25.00;46.90
32147;DHT22;32190;49.112;8.598;2022-09-12T20:50:33;25.00;46.60
32147;DHT22;32190;49.112;8.598;2022-09-12T20:57:08;24.90;46.30
32147;DHT22;32190;49.112;8.598;2022-09-12T21:03:51;24.60;46.40
32147;DHT22;32190;49.112;8.598;2022-09-12T21:16:26;24.20;46.90
32147;DHT22;32190;49.112;8.598;2022-09-12T21:22:38;24.10;46.70
32147;DHT22;32190;49.112;8.598;2022-09-12T21:41:28;23.60;47.80
32147;DHT22;32190;49.112;8.598;2022-09-12T21:47:39;23.50;47.70
32147;DHT22;32190;49.112;8.598;2022-09-12T21:54:03;23.60;48.40
32147;DHT22;32190;49.112;8.598;2022-09-12T22:00:05;23.50;48.00
32147;DHT22;32190;49.112;8.598;2022-09-12T22:19:24;23.50;48.00
32147;DHT22;32190;49.112;8.598;2022-09-12T22:58:34;23.10;48.10
32147;DHT22;32190;49.112;8.598;2022-09-12T23:05:10;23.10;48.10
32147;DHT22;32190;49.112;8.598;2022-09-12T23:11:18;22.90;48.20
32147;DHT22;32190;49.112;8.598;2022-09-12T23:17:17;22.70;48.20
32147;DHT22;32190;49.112;8.598;2022-09-12T23:29:41;22.20;48.70
32147;DHT22;32190;49.112;8.598;2022-09-12T23:42:27;22.00;49.60
32147;DHT22;32190;49.112;8.598;2022-09-12T23:48:32;22.10;49.50
32147;DHT22;32190;49.112;8.598;2022-09-12T23:54:33;22.10;49.50
